Time;durP1;ratioP1;P1;durP2;ratioP2;P2;SDS_P1;SDS_P2;PMS_P1;PMS_P2;Temp;Humidity;BMP_temperature;BMP_pressure;BME280_temperature;BME280_humidity;BME280_pressure;Samples;Min_cycle;Max_cycle;Signal;HPM_P1;HPM_P2
2023/05/19 00:02:42;;;;;;;7.88;2.17;;;10.10;1.00;;;;;;20647591;28;20030;-41
2023/05/19 00:12:44;;;;;;;3.78;1.70;;;10.00;1.00;;;;;;20647970;28;20050;-41
2023/05/19 00:22:45;;;;;;;3.97;1.90;;;9.90;1.00;;;;;;20652194;28;21515;-42
2023/05/19 00:32:46;;;;;;;3.35;1.50;;;9.90;1.00;;;;;;20644288;28;20042;-42
2023/05/19 00:42:47;;;;;;;4.90;2.28;;;9.70;1.00;;;;;;20638925;28;20037;-41
2023/05/19 00:52:48;;;;;;;2.90;1.77;;;9.60;1.00;;;;;;20647295;28;20053;-42
2023/05/19 01:02:50;;;;;;;5.50;1.92;;;9.60;1.00;;;;;;20650670;28;20370;-42
2023/05/19 01:12:51;;;;;;;6.60;2.00;;;9.50;1.00;;;;;;20656046;28;20042;-42
2023/05/19 01:23:22;;;;;;;4.22;1.55;;;9.50;1.00;;;;;;20646918;28;20030;-42
2023/05/19 01:33:25;;;;;;;7.25;2.17;;;9.30;1.00;;;;;;20649446;28;20433;-41
2023/05/19 01:43:27;;;;;;;6.88;1.45;;;9.30;1.00;;;;;;20653751;28;20042;-42
2023/05/19 01:53:28;;;;;;;5.97;1.73;;;9.20;1.00;;;;;;20633075;28;20696;-42
2023/05/19 02:04:00;;;;;;;4.22;1.70;;;9.20;1.00;;;;;;20632123;28;20037;-41
2023/05/19 02:14:07;;;;;;;6.15;2.38;;;9.10;1.00;;;;;;20626725;28;20384;-42
2023/05/19 02:24:08;;;;;;;;;;;9.00;1.00;;;;;;20618060;28;20057;-42
2023/05/19 02:34:10;;;;;;;3.72;2.05;;;8.90;1.00;;;;;;20633849;28;20381;-42
2023/05/19 02:44:11;;;;;;;5.15;1.90;;;8.90;1.00;;;;;;20628846;28;20042;-42
2023/05/19 02:54:12;;;;;;;4.88;1.80;;;8.80;1.00;;;;;;20627763;28;20049;-42
2023/05/19 03:04:13;;;;;;;5.13;1.90;;;8.70;1.00;;;;;;20626944;28;20045;-42
2023/05/19 03:14:14;;;;;;;5.05;1.80;;;8.60;1.00;;;;;;20642706;28;20489;-42
2023/05/19 03:24:15;;;;;;;3.95;1.77;;;8.50;1.00;;;;;;20631263;28;20076;-42
2023/05/19 03:34:16;;;;;;;5.68;1.67;;;8.50;1.00;;;;;;20638669;28;20050;-42
2023/05/19 03:44:18;;;;;;;4.85;2.45;;;8.50;2.50;;;;;;20638022;28;20405;-42
2023/05/19 03:54:21;;;;;;;4.70;1.90;;;8.40;4.20;;;;;;20648965;28;20058;-42
2023/05/19 04:04:22;;;;;;;10.88;3.42;;;8.30;6.30;;;;;;20642638;28;20537;-42
2023/05/19 04:14:23;;;;;;;4.53;2.30;;;8.30;9.30;;;;;;20639326;28;20045;-42
2023/05/19 04:24:24;;;;;;;5.78;2.38;;;8.40;12.30;;;;;;20640643;28;20040;-43
2023/05/19 04:34:27;;;;;;;5.03;2.38;;;8.50;17.80;;;;;;20638331;28;21752;-43
2023/05/19 04:44:28;;;;;;;6.63;2.60;;;8.70;28.40;;;;;;20633628;28;20073;-43
2023/05/19 04:54:30;;;;;;;6.32;2.65;;;8.70;43.30;;;;;;20639472;28;20042;-43
2023/05/19 05:04:31;;;;;;;11.52;3.45;;;8.80;64.10;;;;;;20635441;28;20038;-43
2023/05/19 05:14:32;;;;;;;7.60;3.78;;;9.00;66.00;;;;;;20627362;28;20398;-43
2023/05/19 05:24:34;;;;;;;8.70;3.67;;;9.20;59.60;;;;;;20634708;28;20070;-43
2023/05/19 05:34:36;;;;;;;5.53;2.95;;;9.50;53.20;;;;;;20628915;28;21320;-43
2023/05/19 05:44:37;;;;;;;14.35;3.72;;;9.80;31.80;;;;;;20641200;28;20042;-43
2023/05/19 05:54:39;;;;;;;6.85;3.15;;;10.10;21.40;;;;;;20635980;28;20421;-43
2023/05/19 06:04:40;;;;;;;10.48;3.20;;;10.40;6.90;;;;;;20627343;28;20041;-43
2023/05/19 06:14:41;;;;;;;12.38;4.15;;;10.70;1.00;;;;;;20643946;28;20099;-43
2023/05/19 06:24:42;;;;;;;9.40;3.17;;;11.10;1.00;;;;;;20636085;28;20046;-43
2023/05/19 06:34:43;;;;;;;9.35;3.00;;;11.50;1.00;;;;;;20633270;28;20049;-43
2023/05/19 06:44:44;;;;;;;4.95;2.38;;;11.60;1.00;;;;;;20642668;28;20042;-43
2023/05/19 06:54:45;;;;;;;4.15;2.53;;;11.80;1.00;;;;;;20644851;28;20046;-42
2023/05/19 07:04:46;;;;;;;7.15;2.60;;;11.90;1.00;;;;;;20639971;28;20034;-42
2023/05/19 07:14:47;;;;;;;6.15;2.42;;;12.20;1.00;;;;;;20650272;28;20345;-41
2023/05/19 07:24:49;;;;;;;4.10;2.05;;;12.50;1.00;;;;;;20640121;28;20494;-41
2023/05/19 07:34:51;;;;;;;7.28;1.75;;;12.80;1.00;;;;;;20646557;28;20192;-42
2023/05/19 07:44:52;;;;;;;6.90;2.05;;;13.10;1.00;;;;;;20647757;28;20046;-41
2023/05/19 07:54:53;;;;;;;5.40;1.60;;;13.30;1.00;;;;;;20643043;28;20038;-42
2023/05/19 08:04:55;;;;;;;7.15;2.03;;;13.50;1.00;;;;;;20643675;28;20038;-41
2023/05/19 08:14:56;;;;;;;13.05;2.28;;;13.80;1.00;;;;;;20638736;28;20039;-41
2023/05/19 08:24:57;;;;;;;5.60;2.38;;;14.10;1.00;;;;;;20637488;28;20510;-41
2023/05/19 08:34:58;;;;;;;2.85;1.75;;;14.50;1.00;;;;;;20633489;28;20422;-41
2023/05/19 08:45:00;;;;;;;4.82;1.45;;;14.70;1.00;;;;;;20638277;28;20120;-42
2023/05/19 08:55:16;;;;;;;3.65;1.05;;;15.20;1.00;;;;;;20640147;28;20045;-41
2023/05/19 09:05:18;;;;;;;3.90;1.55;;;15.60;1.00;;;;;;20597722;28;20052;-42
2023/05/19 09:15:19;;;;;;;5.10;0.98;;;15.90;1.00;;;;;;20638652;28;20241;-41
2023/05/19 09:25:23;;;;;;;3.65;1.13;;;16.40;1.00;;;;;;20647900;28;20042;-42
2023/05/19 09:35:24;;;;;;;4.68;1.70;;;16.60;1.00;;;;;;20645985;28;20637;-42
2023/05/19 09:45:26;;;;;;;3.63;1.27;;;16.60;1.00;;;;;;20594934;28;20080;-41
2023/05/19 09:55:31;;;;;;;1.77;0.98;;;16.60;1.00;;;;;;20653582;28;20049;-41
2023/05/19 10:05:33;;;;;;;3.88;1.05;;;17.10;1.00;;;;;;20646942;28;20042;-41
2023/05/19 10:15:35;;;;;;;3.63;1.27;;;17.50;1.00;;;;;;20655018;28;20042;-43
2023/05/19 10:25:37;;;;;;;3.10;1.33;;;17.10;1.00;;;;;;20646630;28;20034;-42
2023/05/19 10:35:53;;;;;;;9.23;2.92;;;17.20;1.00;;;;;;20651579;28;20413;-44
2023/05/19 10:45:55;;;;;;;4.18;1.25;;;17.70;1.00;;;;;;20635134;28;20184;-42
2023/05/19 10:56:01;;;;;;;4.25;1.42;;;17.80;1.00;;;;;;20639463;28;20514;-42
2023/05/19 11:06:24;;;;;;;7.28;1.00;;;18.10;1.00;;;;;;20635522;28;20053;-42
2023/05/19 11:16:30;;;;;;;5.88;1.70;;;18.50;1.00;;;;;;20633485;28;20524;-42
2023/05/19 11:26:42;;;;;;;3.42;1.35;;;18.90;1.00;;;;;;20632989;28;20504;-43
2023/05/19 11:36:44;;;;;;;3.78;1.42;;;18.90;1.00;;;;;;20639080;28;20046;-42
2023/05/19 11:46:45;;;;;;;3.80;1.42;;;19.10;1.00;;;;;;20632638;28;20097;-41
2023/05/19 11:56:46;;;;;;;3.88;1.40;;;19.40;1.00;;;;;;20615414;28;20512;-41
2023/05/19 12:06:51;;;;;;;4.18;1.60;;;19.60;1.00;;;;;;20633215;28;21013;-40
2023/05/19 12:16:52;;;;;;;3.55;1.77;;;19.20;1.00;;;;;;20641104;28;20372;-40
2023/05/19 12:27:10;;;;;;;7.28;1.92;;;19.30;1.00;;;;;;20637540;28;20042;-40
2023/05/19 12:37:11;;;;;;;4.97;1.35;;;19.40;1.00;;;;;;20640156;28;20050;-41
2023/05/19 12:47:14;;;;;;;4.00;1.50;;;19.60;1.00;;;;;;20644180;28;20509;-41
2023/05/19 12:57:16;;;;;;;3.65;1.50;;;19.60;1.00;;;;;;20654438;28;20045;-41
2023/05/19 13:07:18;;;;;;;2.92;1.52;;;19.90;1.00;;;;;;20646939;28;20439;-41
2023/05/19 13:17:19;;;;;;;5.38;1.40;;;19.90;1.00;;;;;;20646036;28;20065;-41
2023/05/19 13:27:21;;;;;;;3.97;1.20;;;19.90;1.00;;;;;;20650725;28;20034;-41
2023/05/19 13:37:22;;;;;;;3.83;1.55;;;20.00;1.00;;;;;;20648637;28;20517;-41
2023/05/19 13:47:24;;;;;;;4.18;1.35;;;19.80;1.00;;;;;;20659524;28;20056;-41
2023/05/19 13:57:25;;;;;;;2.17;1.23;;;19.80;1.00;;;;;;20646549;28;20050;-41
2023/05/19 14:07:27;;;;;;;3.58;1.65;;;19.40;1.00;;;;;;20645709;28;20061;-43
2023/05/19 14:17:28;;;;;;;3.20;1.05;;;19.40;1.00;;;;;;20642882;28;20034;-42
2023/05/19 14:27:29;;;;;;;6.47;1.58;;;19.50;1.00;;;;;;20647252;28;20038;-43
2023/05/19 14:37:30;;;;;;;3.22;1.38;;;19.50;1.00;;;;;;20648461;28;20534;-43
2023/05/19 14:47:31;;;;;;;3.38;1.33;;;19.30;1.00;;;;;;20637280;28;20478;-42
2023/05/19 14:57:32;;;;;;;2.72;1.00;;;19.20;1.00;;;;;;20646336;28;20041;-42
2023/05/19 15:07:34;;;;;;;3.47;1.05;;;19.00;1.00;;;;;;20645347;28;20041;-43
2023/05/19 15:17:35;;;;;;;4.70;1.27;;;18.90;1.00;;;;;;20643756;28;20038;-43
2023/05/19 15:27:36;;;;;;;2.85;0.98;;;18.80;1.00;;;;;;20649393;28;20520;-42
2023/05/19 15:37:37;;;;;;;3.45;1.25;;;18.70;1.00;;;;;;20648750;28;20406;-43
2023/05/19 15:47:38;;;;;;;5.13;1.17;;;18.70;1.00;;;;;;20647089;28;20038;-42
2023/05/19 15:57:39;;;;;;;3.22;1.30;;;18.70;1.00;;;;;;20657661;28;20034;-42
2023/05/19 16:07:40;;;;;;;6.25;1.48;;;18.50;1.00;;;;;;20651527;28;20521;-42
2023/05/19 16:17:42;;;;;;;2.53;1.17;;;18.40;1.00;;;;;;20665854;28;20050;-42
2023/05/19 16:27:43;;;;;;;4.47;1.05;;;18.20;1.00;;;;;;20655868;28;20042;-42
2023/05/19 16:37:44;;;;;;;2.78;0.90;;;18.20;1.00;;;;;;20643188;28;20042;-42
2023/05/19 16:47:45;;;;;;;3.97;1.27;;;18.00;1.00;;;;;;20652974;28;20042;-43
2023/05/19 16:57:46;;;;;;;3.58;1.30;;;18.00;1.00;;;;;;20656255;28;20038;-42
2023/05/19 17:07:47;;;;;;;3.47;1.20;;;17.90;1.00;;;;;;20640775;28;20050;-42
2023/05/19 17:17:49;;;;;;;3.67;1.73;;;17.60;1.00;;;;;;20657900;28;20041;-42
2023/05/19 17:27:51;;;;;;;4.85;1.45;;;17.60;1.00;;;;;;20668801;28;20502;-42
2023/05/19 17:37:52;;;;;;;5.13;1.38;;;17.50;1.00;;;;;;20651304;28;20054;-42
2023/05/19 17:47:53;;;;;;;7.38;1.48;;;17.50;1.00;;;;;;20660610;28;20045;-42
2023/05/19 17:57:54;;;;;;;4.32;2.00;;;17.10;1.00;;;;;;20648969;28;20522;-42
2023/05/19 18:07:56;;;;;;;4.25;1.95;;;16.90;1.00;;;;;;20652874;28;20394;-42
2023/05/19 18:17:57;;;;;;;5.10;2.20;;;16.90;1.00;;;;;;20657983;28;20050;-43
2023/05/19 18:27:58;;;;;;;5.15;2.03;;;16.60;1.00;;;;;;20660427;28;20113;-42
2023/05/19 18:37:59;;;;;;;7.22;2.72;;;16.50;1.00;;;;;;20633931;28;20037;-42
2023/05/19 18:48:00;;;;;;;6.82;2.58;;;16.40;1.00;;;;;;20631069;28;20035;-43
2023/05/19 18:58:01;;;;;;;10.32;2.65;;;16.40;1.00;;;;;;20640604;28;20406;-42
2023/05/19 19:08:04;;;;;;;5.90;2.50;;;16.30;1.00;;;;;;20637249;28;20042;-43
2023/05/19 19:18:05;;;;;;;4.38;2.20;;;16.20;1.00;;;;;;20641150;28;20044;-42
2023/05/19 19:28:06;;;;;;;5.30;2.03;;;16.00;1.00;;;;;;20616769;28;20064;-42
2023/05/19 19:38:07;;;;;;;5.97;2.35;;;15.90;1.00;;;;;;20657835;28;20054;-43
2023/05/19 19:48:08;;;;;;;8.27;2.40;;;15.90;1.00;;;;;;20653636;28;20041;-43
2023/05/19 19:58:09;;;;;;;4.45;2.28;;;15.80;1.00;;;;;;20655565;28;20037;-43
2023/05/19 20:08:10;;;;;;;4.10;1.73;;;15.80;1.00;;;;;;20645493;28;20145;-42
2023/05/19 20:18:12;;;;;;;5.05;1.90;;;15.70;1.00;;;;;;20648731;28;20038;-43
2023/05/19 20:28:13;;;;;;;5.32;2.13;;;15.60;1.00;;;;;;20644201;28;20043;-43
2023/05/19 20:38:14;;;;;;;7.38;2.30;;;15.40;1.00;;;;;;20642865;28;20046;-43
2023/05/19 20:48:15;;;;;;;7.50;2.55;;;15.30;1.00;;;;;;20631517;28;20034;-43
2023/05/19 20:58:16;;;;;;;6.40;2.97;;;15.20;1.00;;;;;;20644669;28;20042;-44
2023/05/19 21:08:17;;;;;;;5.65;2.38;;;15.10;1.00;;;;;;20647469;28;20044;-43
2023/05/19 21:18:18;;;;;;;3.85;1.77;;;14.90;1.00;;;;;;20648139;28;20034;-44
2023/05/19 21:28:20;;;;;;;5.57;1.52;;;14.70;1.00;;;;;;20655417;28;20041;-43
2023/05/19 21:38:21;;;;;;;4.88;2.10;;;14.70;1.00;;;;;;20654724;28;20038;-43
2023/05/19 21:48:22;;;;;;;7.05;2.20;;;14.60;1.00;;;;;;20636601;28;20042;-44
2023/05/19 21:58:23;;;;;;;12.40;2.05;;;14.50;1.00;;;;;;20653471;28;20037;-43
2023/05/19 22:08:25;;;;;;;3.40;1.42;;;14.50;1.00;;;;;;20649086;28;20038;-44
2023/05/19 22:18:33;;;;;;;5.90;2.00;;;14.40;1.00;;;;;;20711927;28;20620;-44
2023/05/19 22:28:35;;;;;;;8.10;2.60;;;14.40;1.00;;;;;;20690940;28;20033;-43
2023/05/19 22:38:36;;;;;;;3.85;1.48;;;14.20;1.00;;;;;;20693199;28;20042;-43
2023/05/19 22:48:37;;;;;;;3.67;1.60;;;14.10;1.00;;;;;;20758847;28;20041;-43
2023/05/19 22:58:38;;;;;;;3.60;1.48;;;14.00;1.00;;;;;;20777265;28;20029;-43
2023/05/19 23:08:39;;;;;;;3.63;1.60;;;13.80;1.00;;;;;;20766726;28;20382;-44
2023/05/19 23:18:40;;;;;;;7.13;2.30;;;13.70;1.00;;;;;;20772366;28;20029;-44
2023/05/19 23:28:42;;;;;;;3.78;2.13;;;13.60;1.00;;;;;;20721851;28;20045;-43
2023/05/19 23:38:43;;;;;;;4.90;1.92;;;13.50;1.00;;;;;;20715200;28;20038;-44
2023/05/19 23:48:44;;;;;;;4.72;2.05;;;13.30;1.00;;;;;;20724899;28;20229;-43
2023/05/19 23:58:45;;;;;;;4.13;1.88;;;13.20;1.00;;;;;;20720906;28;21514;-43
